Terminal Aerodrome Forecast
Issued by NWS Detroit/Pontiac, MI

Home | Current Version | Previous Version | Text Only | Print | Product List | Glossary On
Versions: 1 2 3 4 5 6 7 8 9 10 11 12 13 14 15 16 17 18 19 20 21 22 23 24 25 26 27 28 29 30 31 32
211
FTUS43 KDTX 040222 AAA
TAFDTW
TAF AMD
KDTW 040222Z 0402/0506 17006KT P6SM SCT080 BKN100
     FM040900 18005KT P6SM SCT050 SCT080 BKN100
     FM041300 18009KT P6SM SCT045 BKN080
     FM041500 16008KT 6SM -SHRA SCT040 BKN060
     FM041800 15008KT 5SM SHRA BKN028 OVC050
     FM042200 07007KT 3SM -SHRA BR BKN012 OVC040
     FM050300 01006KT P6SM SCT008 BKN022=

USA.gov is the U.S. government's official web portal to all federal, state and local government web resources and services.